createdAt,value
2018-11-21T00:00:33.709Z,23.94
2018-11-21T00:01:09.324Z,23.88
2018-11-21T00:01:45.550Z,23.91
2018-11-21T00:02:21.414Z,23.96
2018-11-21T00:02:56.668Z,23.99
2018-11-21T00:03:32.690Z,23.89
2018-11-21T00:04:08.083Z,23.82
2018-11-21T00:04:43.710Z,23.79
2018-11-21T00:05:19.791Z,23.73
2018-11-21T00:05:55.540Z,23.80
2018-11-21T00:06:31.748Z,23.74
2018-11-21T00:07:07.422Z,23.69
2018-11-21T00:07:43.197Z,23.71
2018-11-21T00:08:18.820Z,23.81
2018-11-21T00:08:54.981Z,23.84
2018-11-21T00:09:30.790Z,23.92
2018-11-21T00:10:08.994Z,24.07
2018-11-21T00:10:44.527Z,24.06
2018-11-21T00:11:19.998Z,24.17
2018-11-21T00:11:56.371Z,24.22
2018-11-21T00:12:32.649Z,24.27
2018-11-21T00:13:08.266Z,24.31
2018-11-21T00:13:44.057Z,24.22
2018-11-21T00:14:19.975Z,24.23
2018-11-21T00:14:56.458Z,24.21
2018-11-21T00:15:32.455Z,24.27
2018-11-21T00:16:07.792Z,24.34
2018-11-21T00:16:43.649Z,24.38
2018-11-21T00:17:19.128Z,24.38
2018-11-21T00:17:54.809Z,24.39
2018-11-21T00:18:30.856Z,24.36
2018-11-21T00:19:07.982Z,24.31
2018-11-21T00:19:43.945Z,24.36
2018-11-21T00:20:19.684Z,24.31
2018-11-21T00:20:55.491Z,24.37
2018-11-21T00:21:30.988Z,24.40
2018-11-21T00:22:06.852Z,24.43
2018-11-21T00:22:42.092Z,24.38
2018-11-21T00:23:17.594Z,24.39
2018-11-21T00:23:52.990Z,24.37
2018-11-21T00:24:29.255Z,24.39
2018-11-21T00:25:04.316Z,24.36
2018-11-21T00:25:40.039Z,24.36
2018-11-21T00:26:15.651Z,24.36
2018-11-21T00:26:51.392Z,24.31
2018-11-21T00:27:27.211Z,24.21
2018-11-21T00:28:02.773Z,24.04
2018-11-21T00:28:37.823Z,23.96
2018-11-21T00:29:13.583Z,23.94
2018-11-21T00:29:49.499Z,23.88
2018-11-21T00:30:25.431Z,23.75
2018-11-21T00:31:01.279Z,23.66
2018-11-21T00:31:36.450Z,23.71
2018-11-21T00:32:29.394Z,23.75
2018-11-21T00:33:04.986Z,23.78
2018-11-21T00:33:40.880Z,23.71
2018-11-21T00:34:16.437Z,23.75
2018-11-21T00:34:53.216Z,23.75
2018-11-21T00:35:28.922Z,23.83
2018-11-21T00:36:04.738Z,23.87
2018-11-21T00:36:40.567Z,23.75
2018-11-21T00:37:16.401Z,23.84
2018-11-21T00:37:52.111Z,23.70
2018-11-21T00:38:27.676Z,23.69
2018-11-21T00:39:03.415Z,23.70
2018-11-21T00:39:38.890Z,23.60
2018-11-21T00:40:16.884Z,23.53
2018-11-21T00:40:52.650Z,23.53
2018-11-21T00:41:28.341Z,23.54
2018-11-21T00:42:04.566Z,23.44
2018-11-21T00:42:46.375Z,23.49
2018-11-21T00:43:15.783Z,23.48
2018-11-21T00:43:52.016Z,23.48
2018-11-21T00:44:28.232Z,23.49
2018-11-21T00:45:03.969Z,23.49
2018-11-21T00:45:39.710Z,23.48
2018-11-21T00:46:16.186Z,23.41
2018-11-21T00:46:52.135Z,23.41
2018-11-21T00:47:27.907Z,23.43
2018-11-21T00:48:03.511Z,23.41
2018-11-21T00:48:39.692Z,23.36
2018-11-21T00:49:15.576Z,23.30
2018-11-21T00:49:51.765Z,23.44
2018-11-21T00:50:27.363Z,23.52
2018-11-21T00:51:02.872Z,23.41
2018-11-21T00:51:38.164Z,23.41
2018-11-21T00:52:13.420Z,23.43
2018-11-21T00:52:49.285Z,23.43
2018-11-21T00:53:24.582Z,23.32
2018-11-21T00:54:00.338Z,23.32
2018-11-21T00:54:36.680Z,23.42
2018-11-21T00:55:12.180Z,23.45
2018-11-21T00:55:47.629Z,23.40
2018-11-21T00:56:23.144Z,23.36
2018-11-21T00:57:00.080Z,23.36
2018-11-21T00:57:35.137Z,23.31
2018-11-21T00:58:10.996Z,23.18
2018-11-21T00:58:48.105Z,23.19
2018-11-21T00:59:23.891Z,23.19
2018-11-21T00:59:59.863Z,23.16
2018-11-21T01:00:35.871Z,23.12
2018-11-21T01:01:11.992Z,23.15
2018-11-21T01:01:48.271Z,23.11
2018-11-21T01:02:24.080Z,23.09
2018-11-21T01:02:59.425Z,23.08
2018-11-21T01:03:35.058Z,23.23
2018-11-21T01:04:10.913Z,23.25
2018-11-21T01:04:46.703Z,23.25
2018-11-21T01:05:23.013Z,23.31
2018-11-21T01:05:58.291Z,23.18
2018-11-21T01:06:34.092Z,23.18
2018-11-21T01:07:09.888Z,23.09
2018-11-21T01:07:46.368Z,23.16
2018-11-21T01:08:21.768Z,23.20
2018-11-21T01:08:57.705Z,23.20
2018-11-21T01:09:32.692Z,23.09
2018-11-21T01:10:08.443Z,23.09
2018-11-21T01:10:44.049Z,23.10
2018-11-21T01:11:19.850Z,23.05
2018-11-21T01:11:56.053Z,23.10
2018-11-21T01:12:31.455Z,23.06
2018-11-21T01:13:07.698Z,23.05
2018-11-21T01:13:43.323Z,23.08
2018-11-21T01:14:18.943Z,23.07
2018-11-21T01:14:55.330Z,23.04
2018-11-21T01:15:31.231Z,23.14
2018-11-21T01:16:06.821Z,23.10
2018-11-21T01:16:42.491Z,23.08
2018-11-21T01:17:18.683Z,22.97
2018-11-21T01:17:54.411Z,22.97
2018-11-21T01:18:30.491Z,22.93
2018-11-21T01:19:05.912Z,22.98
2018-11-21T01:19:42.376Z,22.94
2018-11-21T01:20:17.933Z,22.92
2018-11-21T01:20:53.995Z,22.92
2018-11-21T01:21:30.193Z,22.93
2018-11-21T01:22:06.022Z,22.99
2018-11-21T01:22:41.230Z,22.98
2018-11-21T01:23:17.318Z,22.98
2018-11-21T01:23:52.957Z,22.96
2018-11-21T01:24:29.102Z,22.91
2018-11-21T01:25:04.645Z,22.91
2018-11-21T01:25:40.121Z,22.91
2018-11-21T01:26:15.491Z,22.92
2018-11-21T01:26:52.148Z,22.92
2018-11-21T01:27:27.393Z,22.95
2018-11-21T01:28:03.234Z,22.90
2018-11-21T01:28:39.273Z,23.00
2018-11-21T01:29:14.976Z,22.93
2018-11-21T01:29:51.394Z,22.93
2018-11-21T01:30:27.178Z,22.88
2018-11-21T01:31:02.812Z,22.88
2018-11-21T01:31:38.657Z,22.87
2018-11-21T01:32:14.606Z,22.86
2018-11-21T01:32:50.029Z,22.87
2018-11-21T01:33:25.928Z,22.87
2018-11-21T01:34:02.095Z,23.09
2018-11-21T01:34:37.714Z,23.05
2018-11-21T01:35:13.420Z,23.13
2018-11-21T01:35:49.822Z,23.13
2018-11-21T01:36:25.446Z,23.11
2018-11-21T01:37:01.319Z,23.14
2018-11-21T01:37:36.941Z,23.05
2018-11-21T01:38:13.066Z,23.09
2018-11-21T01:38:48.684Z,23.02
2018-11-21T01:39:24.593Z,22.96
2018-11-21T01:39:59.950Z,23.06
2018-11-21T01:40:35.974Z,23.06
2018-11-21T01:41:12.069Z,23.03
2018-11-21T01:41:48.356Z,22.97
2018-11-21T01:42:24.067Z,22.97
2018-11-21T01:43:00.053Z,23.05
2018-11-21T01:43:36.115Z,23.05
2018-11-21T01:44:11.379Z,22.98
2018-11-21T01:44:46.835Z,23.07
2018-11-21T01:45:22.474Z,23.07
2018-11-21T01:45:58.108Z,23.05
2018-11-21T01:46:33.457Z,22.95
2018-11-21T01:47:09.608Z,22.99
2018-11-21T01:47:45.228Z,22.90
2018-11-21T01:48:20.823Z,22.90
2018-11-21T01:48:56.342Z,22.84
2018-11-21T01:49:32.348Z,22.80
2018-11-21T01:50:09.203Z,22.87
2018-11-21T01:50:45.395Z,22.87
2018-11-21T01:51:21.604Z,22.91
2018-11-21T01:51:57.001Z,23.00
2018-11-21T01:52:33.324Z,23.00
2018-11-21T01:53:09.106Z,23.00
2018-11-21T01:53:44.810Z,22.99
2018-11-21T01:54:20.840Z,23.10
2018-11-21T01:54:56.858Z,23.00
2018-11-21T01:55:33.509Z,23.05
2018-11-21T01:56:09.703Z,22.97
2018-11-21T01:56:45.752Z,22.80
2018-11-21T01:57:21.748Z,22.80
2018-11-21T01:57:59.582Z,22.74
2018-11-21T01:58:34.656Z,22.78
2018-11-21T01:59:10.773Z,22.81
2018-11-21T01:59:46.194Z,22.86
2018-11-21T02:00:22.358Z,22.93
2018-11-21T02:00:57.137Z,23.00
2018-11-21T02:01:32.853Z,22.94
2018-11-21T02:02:08.985Z,23.05
2018-11-21T02:02:44.994Z,23.05
2018-11-21T02:03:20.702Z,22.99
2018-11-21T02:03:56.660Z,22.97
2018-11-21T02:04:32.081Z,22.99
2018-11-21T02:05:08.403Z,23.01
2018-11-21T02:05:44.955Z,23.04
2018-11-21T02:06:20.185Z,23.08
2018-11-21T02:06:55.781Z,23.16
2018-11-21T02:07:31.809Z,23.16
2018-11-21T02:08:07.645Z,23.06
2018-11-21T02:08:43.386Z,23.06
2018-11-21T02:09:19.507Z,23.13
2018-11-21T02:09:55.202Z,23.10
2018-11-21T02:10:30.941Z,23.10
2018-11-21T02:11:06.861Z,23.15
2018-11-21T02:11:42.880Z,22.98
2018-11-21T02:12:19.013Z,23.05
2018-11-21T02:12:54.665Z,23.10
2018-11-21T02:13:30.391Z,23.06
2018-11-21T02:14:06.308Z,22.99
2018-11-21T02:14:42.172Z,22.98
2018-11-21T02:15:17.975Z,22.98
2018-11-21T02:15:53.729Z,23.11
2018-11-21T02:16:30.066Z,23.08
2018-11-21T02:17:05.239Z,23.06
2018-11-21T02:17:40.810Z,23.06
2018-11-21T02:18:16.780Z,23.02
2018-11-21T02:18:52.955Z,22.93
2018-11-21T02:19:29.006Z,22.80
2018-11-21T02:20:04.678Z,22.86
2018-11-21T02:20:40.411Z,22.86
2018-11-21T02:21:15.864Z,22.76
2018-11-21T02:21:51.559Z,22.87
2018-11-21T02:22:27.127Z,22.83
2018-11-21T02:23:03.594Z,22.96
2018-11-21T02:23:39.064Z,22.96
2018-11-21T02:24:14.968Z,22.88
2018-11-21T02:24:50.041Z,22.94
2018-11-21T02:25:26.094Z,22.99
2018-11-21T02:26:02.033Z,22.85
2018-11-21T02:26:37.787Z,22.73
2018-11-21T02:27:13.236Z,22.73
2018-11-21T02:27:48.651Z,22.72
2018-11-21T02:28:24.800Z,22.81
2018-11-21T02:29:00.176Z,22.81
2018-11-21T02:29:36.118Z,22.77
2018-11-21T02:30:11.627Z,22.82
2018-11-21T02:30:47.315Z,22.81
2018-11-21T02:31:23.045Z,22.81
2018-11-21T02:31:58.453Z,22.68
2018-11-21T02:32:33.813Z,22.75
2018-11-21T02:33:09.447Z,22.69
2018-11-21T02:33:45.124Z,22.69
2018-11-21T02:34:21.701Z,22.64
2018-11-21T02:34:57.708Z,22.64
2018-11-21T02:35:34.120Z,22.71
2018-11-21T02:36:09.318Z,22.73
2018-11-21T02:36:45.268Z,22.73
2018-11-21T02:37:21.572Z,22.72
2018-11-21T02:37:57.541Z,22.72
2018-11-21T02:38:33.016Z,22.89
2018-11-21T02:39:11.563Z,22.89
2018-11-21T02:39:47.215Z,22.76
2018-11-21T02:40:23.087Z,22.78
2018-11-21T02:40:58.663Z,22.81
2018-11-21T02:41:34.165Z,22.81
2018-11-21T02:42:10.460Z,22.82
2018-11-21T02:42:45.955Z,22.81
2018-11-21T02:43:21.518Z,22.81
2018-11-21T02:43:57.471Z,22.68
2018-11-21T02:44:32.981Z,22.68
2018-11-21T02:45:08.886Z,22.76
2018-11-21T02:45:45.718Z,22.75
2018-11-21T02:46:20.843Z,22.67
2018-11-21T02:46:56.030Z,22.68
2018-11-21T02:47:31.579Z,22.68
2018-11-21T02:48:07.519Z,22.66
2018-11-21T02:48:42.566Z,22.70
2018-11-21T02:49:18.606Z,22.67
2018-11-21T02:49:54.417Z,22.60
2018-11-21T02:50:29.948Z,22.60
2018-11-21T02:51:06.368Z,22.55
2018-11-21T02:51:42.548Z,22.61
2018-11-21T02:52:18.326Z,22.61
2018-11-21T02:52:54.465Z,22.55
2018-11-21T02:53:30.247Z,22.49
2018-11-21T02:54:06.619Z,22.49
2018-11-21T02:54:41.702Z,22.54
2018-11-21T02:55:18.228Z,22.48
2018-11-21T02:55:53.835Z,22.50
2018-11-21T02:57:06.024Z,22.46
2018-11-21T02:57:42.438Z,22.46
2018-11-21T02:58:18.460Z,22.48
2018-11-21T02:58:54.144Z,22.48
2018-11-21T02:59:29.923Z,22.43
2018-11-21T03:00:08.858Z,22.49
2018-11-21T03:00:45.074Z,22.47
2018-11-21T03:01:20.791Z,22.52
2018-11-21T03:01:56.677Z,22.46
2018-11-21T03:02:32.653Z,22.53
2018-11-21T03:03:08.559Z,22.53
2018-11-21T03:03:44.021Z,22.59
2018-11-21T03:04:20.183Z,22.60
2018-11-21T03:04:55.682Z,22.62
2018-11-21T03:05:31.570Z,22.56
2018-11-21T03:06:08.902Z,22.56
2018-11-21T03:06:45.269Z,22.53
2018-11-21T03:07:20.957Z,22.52
2018-11-21T03:07:58.200Z,22.57
2018-11-21T03:08:34.256Z,22.57
2018-11-21T03:09:10.931Z,22.61
2018-11-21T03:09:46.248Z,22.53
2018-11-21T03:10:23.139Z,22.49
2018-11-21T03:10:58.106Z,22.49
2018-11-21T03:11:34.268Z,22.49
2018-11-21T03:12:10.443Z,22.55
2018-11-21T03:12:46.506Z,22.55
2018-11-21T03:13:28.170Z,22.55
2018-11-21T03:13:57.219Z,22.56
2018-11-21T03:14:32.817Z,22.52
2018-11-21T03:15:08.417Z,22.52
2018-11-21T03:15:43.661Z,22.57
2018-11-21T03:16:19.885Z,22.71
2018-11-21T03:16:55.957Z,22.66
2018-11-21T03:17:31.655Z,22.66
2018-11-21T03:18:07.732Z,22.63
2018-11-21T03:18:43.815Z,22.59
2018-11-21T03:19:19.715Z,22.59
2018-11-21T03:19:56.148Z,22.60
2018-11-21T03:20:31.801Z,22.57
2018-11-21T03:21:07.799Z,22.52
2018-11-21T03:21:44.036Z,22.52
2018-11-21T03:22:19.908Z,22.58
2018-11-21T03:22:55.237Z,22.58
2018-11-21T03:23:31.091Z,22.53
2018-11-21T03:24:07.242Z,22.57
2018-11-21T03:24:43.456Z,22.57
2018-11-21T03:25:18.583Z,22.63
2018-11-21T03:25:54.672Z,22.63
2018-11-21T03:26:30.472Z,22.74
2018-11-21T03:27:06.092Z,22.68
2018-11-21T03:27:42.105Z,22.78
2018-11-21T03:28:17.467Z,22.78
2018-11-21T03:28:52.943Z,22.63
2018-11-21T03:29:29.081Z,22.66
2018-11-21T03:30:05.291Z,22.72
2018-11-21T03:30:41.316Z,22.63
2018-11-21T03:31:17.301Z,22.54
2018-11-21T03:31:52.973Z,22.56
2018-11-21T03:32:29.034Z,22.56
2018-11-21T03:33:04.480Z,22.66
2018-11-21T03:33:40.097Z,22.52
2018-11-21T03:34:16.040Z,22.60
2018-11-21T03:34:51.969Z,22.53
2018-11-21T03:35:27.489Z,22.53
2018-11-21T03:36:03.417Z,22.52
2018-11-21T03:36:39.644Z,22.52
2018-11-21T03:37:15.762Z,22.51
2018-11-21T03:37:50.823Z,22.58
2018-11-21T03:38:26.362Z,22.67
2018-11-21T03:39:02.661Z,22.61
2018-11-21T03:39:37.768Z,22.60
2018-11-21T03:40:14.289Z,22.61
2018-11-21T03:40:50.563Z,22.50
2018-11-21T03:41:26.656Z,22.50
2018-11-21T03:42:02.349Z,22.48
2018-11-21T03:42:40.923Z,22.48
2018-11-21T03:43:16.584Z,22.44
2018-11-21T03:43:52.294Z,22.42
2018-11-21T03:44:27.997Z,22.48
2018-11-21T03:45:03.690Z,22.48
2018-11-21T03:45:39.861Z,22.52
2018-11-21T03:46:16.279Z,22.52
2018-11-21T03:46:52.060Z,22.56
2018-11-21T03:47:27.635Z,22.45
2018-11-21T03:48:03.974Z,22.46
2018-11-21T03:48:39.276Z,22.56
2018-11-21T03:49:15.144Z,22.56
2018-11-21T03:49:51.079Z,22.43
2018-11-21T03:50:27.073Z,22.38
2018-11-21T03:51:02.280Z,22.43
2018-11-21T03:51:38.743Z,22.43
2018-11-21T03:52:15.097Z,22.35
2018-11-21T03:52:50.588Z,22.37
2018-11-21T03:53:26.684Z,22.43
2018-11-21T03:54:02.212Z,22.43
2018-11-21T03:54:38.270Z,22.43
2018-11-21T03:55:13.838Z,22.48
2018-11-21T03:55:49.441Z,22.43
2018-11-21T03:56:25.228Z,22.57
2018-11-21T03:57:01.225Z,22.43
2018-11-21T03:57:36.777Z,22.43
2018-11-21T03:58:12.412Z,22.47
2018-11-21T03:58:48.468Z,22.49
2018-11-21T03:59:24.366Z,22.53
2018-11-21T04:00:00.460Z,22.53
2018-11-21T04:00:35.660Z,22.53
2018-11-21T04:01:11.151Z,22.67
2018-11-21T04:01:47.067Z,22.53
2018-11-21T04:02:22.721Z,22.42
2018-11-21T04:02:57.750Z,22.42
2018-11-21T04:03:33.740Z,22.42
2018-11-21T04:04:10.393Z,22.43
2018-11-21T04:04:45.889Z,22.40
2018-11-21T04:05:22.020Z,22.38
2018-11-21T04:05:57.690Z,22.41
2018-11-21T04:06:33.271Z,22.41
2018-11-21T04:07:09.435Z,22.25
2018-11-21T04:07:45.068Z,22.31
2018-11-21T04:08:20.877Z,22.25
2018-11-21T04:08:55.977Z,22.23
2018-11-21T04:09:31.995Z,22.36
2018-11-21T04:10:11.244Z,22.36
2018-11-21T04:10:47.403Z,22.41
2018-11-21T04:11:23.130Z,22.39
2018-11-21T04:11:58.662Z,22.39
2018-11-21T04:12:34.673Z,22.37
2018-11-21T04:13:10.439Z,22.37
2018-11-21T04:13:46.603Z,22.43
2018-11-21T04:14:22.496Z,22.43
2018-11-21T04:14:58.171Z,22.47
2018-11-21T04:15:33.933Z,22.41
2018-11-21T04:16:10.142Z,22.41
2018-11-21T04:16:46.117Z,22.34
2018-11-21T04:17:21.753Z,22.24
2018-11-21T04:17:57.527Z,22.29
2018-11-21T04:18:33.539Z,22.36
2018-11-21T04:19:09.244Z,22.36
2018-11-21T04:19:44.878Z,22.45
2018-11-21T04:20:20.502Z,22.36
2018-11-21T04:20:56.614Z,22.48
2018-11-21T04:21:32.460Z,22.49
2018-11-21T04:22:08.535Z,22.49
2018-11-21T04:22:43.976Z,22.52
2018-11-21T04:23:20.010Z,22.45
2018-11-21T04:23:55.504Z,22.38
2018-11-21T04:24:31.108Z,22.38
2018-11-21T04:25:08.082Z,22.40
2018-11-21T04:25:44.086Z,22.30
2018-11-21T04:26:19.658Z,22.30
2018-11-21T04:26:55.470Z,22.31
2018-11-21T04:27:31.096Z,22.33
2018-11-21T04:28:07.284Z,22.33
2018-11-21T04:28:42.588Z,22.34
2018-11-21T04:29:18.824Z,22.34
2018-11-21T04:29:55.115Z,22.37
2018-11-21T04:30:30.673Z,22.28
2018-11-21T04:31:14.630Z,22.25
2018-11-21T04:31:50.873Z,22.25
2018-11-21T04:32:26.573Z,22.25
2018-11-21T04:33:02.141Z,22.31
2018-11-21T04:33:38.632Z,22.27
2018-11-21T04:34:13.953Z,22.35
2018-11-21T04:34:48.939Z,22.34
2018-11-21T04:35:24.409Z,22.27
2018-11-21T04:35:59.723Z,22.27
2018-11-21T04:36:35.685Z,22.31
2018-11-21T04:37:11.158Z,22.45
2018-11-21T04:37:46.997Z,22.41
2018-11-21T04:38:22.702Z,22.32
2018-11-21T04:38:58.854Z,22.21
2018-11-21T04:39:35.044Z,22.25
2018-11-21T04:40:11.477Z,22.21
2018-11-21T04:40:46.931Z,22.44
2018-11-21T04:41:22.937Z,22.31
2018-11-21T04:41:58.835Z,22.31
2018-11-21T04:42:34.412Z,22.32
2018-11-21T04:43:09.798Z,22.32
2018-11-21T04:43:45.760Z,22.36
2018-11-21T04:44:21.100Z,22.42
2018-11-21T04:44:56.915Z,22.45
2018-11-21T04:45:32.791Z,22.37
2018-11-21T04:46:08.892Z,22.38
2018-11-21T04:46:44.020Z,22.26
2018-11-21T04:47:20.003Z,22.26
2018-11-21T04:47:56.015Z,22.26
2018-11-21T04:48:31.488Z,22.23
2018-11-21T04:49:07.128Z,22.23
2018-11-21T04:49:43.237Z,22.14
2018-11-21T04:50:19.049Z,22.17
2018-11-21T04:50:54.805Z,22.25
2018-11-21T04:51:30.236Z,22.25
2018-11-21T04:52:06.529Z,22.25
2018-11-21T04:52:41.833Z,22.29
2018-11-21T04:53:17.307Z,22.27
2018-11-21T04:53:53.497Z,22.26
2018-11-21T04:54:29.663Z,22.26
2018-11-21T04:55:05.409Z,22.28
2018-11-21T04:55:41.526Z,22.38
2018-11-21T04:56:16.579Z,22.32
2018-11-21T04:56:52.504Z,22.42
2018-11-21T04:57:28.542Z,22.35
2018-11-21T04:58:03.980Z,22.23
2018-11-21T04:58:39.580Z,22.23
2018-11-21T04:59:15.209Z,22.27
2018-11-21T04:59:51.218Z,22.22
2018-11-21T05:00:27.285Z,22.21
2018-11-21T05:01:02.239Z,22.22
2018-11-21T05:01:38.496Z,22.20
2018-11-21T05:02:14.150Z,22.24
2018-11-21T05:02:49.295Z,22.24
2018-11-21T05:03:25.112Z,22.10
2018-11-21T05:04:00.473Z,22.10
2018-11-21T05:04:36.106Z,22.12
2018-11-21T05:05:12.690Z,22.12
2018-11-21T05:05:47.936Z,22.16
2018-11-21T05:06:23.544Z,22.13
2018-11-21T05:06:59.091Z,22.15
2018-11-21T05:07:34.743Z,22.17
2018-11-21T05:08:11.555Z,22.28
2018-11-21T05:08:47.496Z,22.19
2018-11-21T05:09:23.210Z,22.13
2018-11-21T05:09:59.389Z,22.13
2018-11-21T05:10:34.502Z,22.15
2018-11-21T05:11:10.521Z,22.17
2018-11-21T05:11:46.248Z,22.22
2018-11-21T05:12:22.392Z,22.13
2018-11-21T05:12:57.602Z,22.15
2018-11-21T05:13:32.646Z,22.16
2018-11-21T05:14:08.105Z,22.16
2018-11-21T05:14:43.695Z,22.14
2018-11-21T05:15:19.247Z,22.19
2018-11-21T05:15:55.259Z,22.10
2018-11-21T05:16:31.021Z,22.07
2018-11-21T05:17:06.922Z,22.02
2018-11-21T05:17:42.420Z,22.11
2018-11-21T05:18:17.920Z,22.14
2018-11-21T05:18:53.133Z,22.36
2018-11-21T05:19:28.549Z,22.36
2018-11-21T05:20:04.279Z,22.25
2018-11-21T05:20:40.456Z,22.15
2018-11-21T05:21:15.591Z,22.15
2018-11-21T05:21:51.715Z,22.17
2018-11-21T05:22:27.031Z,22.20
2018-11-21T05:23:03.092Z,22.12
2018-11-21T05:23:39.259Z,22.12
2018-11-21T05:24:15.021Z,22.18
2018-11-21T05:24:50.949Z,22.13
2018-11-21T05:25:26.418Z,22.24
2018-11-21T05:26:01.890Z,22.22
2018-11-21T05:26:37.994Z,22.15
2018-11-21T05:27:13.070Z,22.27
2018-11-21T05:27:49.371Z,22.27
2018-11-21T05:28:25.058Z,22.32
2018-11-21T05:29:00.673Z,22.22
2018-11-21T05:29:36.510Z,22.22
2018-11-21T05:30:14.333Z,22.33
2018-11-21T05:30:49.995Z,22.26
2018-11-21T05:31:25.910Z,22.31
2018-11-21T05:32:01.918Z,22.14
2018-11-21T05:32:37.785Z,22.12
2018-11-21T05:33:13.237Z,22.30
2018-11-21T05:33:48.559Z,22.36
2018-11-21T05:34:24.797Z,22.30
2018-11-21T05:35:00.538Z,22.25
2018-11-21T05:35:36.104Z,22.31
2018-11-21T05:36:12.108Z,22.46
2018-11-21T05:36:47.613Z,22.32
2018-11-21T05:37:22.850Z,22.34
2018-11-21T05:37:58.150Z,22.34
2018-11-21T05:38:33.489Z,22.46
2018-11-21T05:39:13.807Z,22.35
2018-11-21T05:39:49.244Z,22.31
2018-11-21T05:40:24.786Z,22.28
2018-11-21T05:41:00.417Z,22.28
2018-11-21T05:41:35.987Z,22.30
2018-11-21T05:42:11.644Z,22.28
2018-11-21T05:42:46.791Z,22.28
2018-11-21T05:43:22.255Z,22.26
2018-11-21T05:43:58.512Z,22.13
2018-11-21T05:44:33.456Z,22.13
2018-11-21T05:45:10.663Z,22.18
2018-11-21T05:45:46.513Z,22.20
2018-11-21T05:46:22.287Z,22.20
2018-11-21T05:46:57.756Z,22.24
2018-11-21T05:47:32.840Z,22.14
2018-11-21T05:48:08.618Z,22.17
2018-11-21T05:48:44.355Z,22.17
2018-11-21T05:49:20.428Z,22.14
2018-11-21T05:49:56.156Z,22.14
2018-11-21T05:50:32.191Z,22.15
2018-11-21T05:51:07.393Z,22.15
2018-11-21T05:51:43.239Z,22.16
2018-11-21T05:52:18.854Z,22.11
2018-11-21T05:52:54.212Z,22.15
2018-11-21T05:53:29.949Z,22.14
2018-11-21T05:54:06.166Z,22.11
2018-11-21T05:54:41.888Z,22.06
2018-11-21T05:55:18.153Z,22.04
2018-11-21T05:55:54.293Z,22.04
2018-11-21T05:56:30.088Z,21.99
2018-11-21T05:57:06.055Z,22.04
2018-11-21T05:57:42.196Z,22.04
2018-11-21T05:58:18.288Z,22.06
2018-11-21T05:58:53.782Z,22.06
2018-11-21T05:59:29.082Z,22.05
2018-11-21T06:00:05.046Z,22.08
2018-11-21T06:00:41.129Z,22.05
2018-11-21T06:01:16.428Z,22.13
2018-11-21T06:01:52.384Z,22.13
2018-11-21T06:02:27.360Z,22.03
2018-11-21T06:03:02.647Z,22.01
2018-11-21T06:03:38.142Z,22.01
2018-11-21T06:04:14.580Z,22.05
2018-11-21T06:04:49.979Z,22.04
2018-11-21T06:05:25.985Z,21.98
2018-11-21T06:06:01.410Z,21.90
2018-11-21T06:06:36.931Z,21.90
2018-11-21T06:07:12.383Z,21.93
2018-11-21T06:07:48.269Z,21.94
2018-11-21T06:08:23.839Z,21.94
2018-11-21T06:08:59.348Z,21.92
2018-11-21T06:09:34.744Z,21.95
2018-11-21T06:10:12.526Z,21.95
2018-11-21T06:10:48.906Z,21.97
2018-11-21T06:11:24.105Z,21.97
2018-11-21T06:12:04.266Z,21.95
2018-11-21T06:12:35.349Z,21.96
2018-11-21T06:13:11.475Z,21.91
2018-11-21T06:13:47.406Z,21.87
2018-11-21T06:14:23.590Z,21.90
2018-11-21T06:14:58.891Z,21.90
2018-11-21T06:15:34.982Z,22.04
2018-11-21T06:16:10.779Z,22.00
2018-11-21T06:16:46.796Z,22.00
2018-11-21T06:17:22.363Z,21.93
2018-11-21T06:17:57.890Z,21.89
2018-11-21T06:18:33.867Z,21.90
2018-11-21T06:19:09.455Z,21.90
2018-11-21T06:19:45.828Z,21.94
2018-11-21T06:20:21.712Z,21.94
2018-11-21T06:20:57.732Z,21.85
2018-11-21T06:21:33.813Z,21.85
2018-11-21T06:22:09.884Z,21.96
2018-11-21T06:22:46.085Z,22.00
2018-11-21T06:23:22.078Z,21.94
2018-11-21T06:23:58.278Z,21.89
2018-11-21T06:24:33.535Z,21.84
2018-11-21T06:25:10.420Z,21.84
2018-11-21T06:25:46.510Z,21.82
2018-11-21T06:26:22.278Z,21.83
2018-11-21T06:27:00.180Z,21.82
2018-11-21T06:27:35.826Z,21.82
2018-11-21T06:28:11.850Z,21.80
2018-11-21T06:28:47.711Z,21.76
2018-11-21T06:29:23.521Z,21.70
2018-11-21T06:29:58.770Z,21.70
2018-11-21T06:30:34.518Z,21.67
2018-11-21T06:31:10.473Z,21.66
2018-11-21T06:31:46.828Z,21.66
2018-11-21T06:32:22.591Z,21.71
2018-11-21T06:32:58.751Z,21.68
2018-11-21T06:33:33.939Z,21.71
2018-11-21T06:34:10.075Z,21.71
2018-11-21T06:34:45.581Z,21.71
2018-11-21T06:35:22.046Z,21.65
2018-11-21T06:35:56.884Z,21.61
2018-11-21T06:36:32.884Z,21.73
2018-11-21T06:37:08.252Z,21.76
2018-11-21T06:37:43.537Z,21.76
2018-11-21T06:38:19.012Z,21.70
2018-11-21T06:38:55.019Z,21.70
2018-11-21T06:39:30.233Z,21.86
2018-11-21T06:40:05.568Z,21.86
2018-11-21T06:40:41.329Z,21.76
2018-11-21T06:41:17.803Z,21.80
2018-11-21T06:41:53.108Z,21.71
2018-11-21T06:42:29.092Z,21.66
2018-11-21T06:43:04.705Z,21.66
2018-11-21T06:43:40.325Z,21.73
2018-11-21T06:44:16.066Z,21.70
2018-11-21T06:44:51.520Z,21.59
2018-11-21T06:45:28.401Z,21.64
2018-11-21T06:46:03.787Z,21.60
2018-11-21T06:46:39.792Z,21.53
2018-11-21T06:47:15.897Z,21.53
2018-11-21T06:47:51.707Z,21.64
2018-11-21T06:48:26.944Z,21.64
2018-11-21T06:49:02.510Z,21.57
2018-11-21T06:49:37.801Z,21.57
2018-11-21T06:50:13.773Z,21.62
2018-11-21T06:50:49.626Z,21.63
2018-11-21T06:51:25.030Z,21.60
2018-11-21T06:52:00.565Z,21.67
2018-11-21T06:52:36.214Z,21.60
2018-11-21T06:53:11.834Z,21.65
2018-11-21T06:53:46.965Z,21.65
2018-11-21T06:54:22.519Z,21.65
2018-11-21T06:54:58.373Z,21.69
2018-11-21T06:55:33.535Z,21.53
2018-11-21T06:56:09.250Z,21.53
2018-11-21T06:56:45.487Z,21.52
2018-11-21T06:57:21.304Z,21.48
2018-11-21T06:57:57.576Z,21.58
2018-11-21T06:58:33.526Z,21.64
2018-11-21T06:59:09.901Z,21.64
2018-11-21T06:59:45.623Z,21.63
2018-11-21T07:00:24.706Z,21.57
2018-11-21T07:01:00.493Z,21.53
2018-11-21T07:01:37.667Z,21.58
2018-11-21T07:02:13.190Z,21.58
2018-11-21T07:02:48.678Z,21.63
2018-11-21T07:03:24.255Z,21.58
2018-11-21T07:03:59.986Z,21.53
2018-11-21T07:04:35.530Z,21.53
2018-11-21T07:05:12.311Z,21.63
2018-11-21T07:05:47.356Z,21.58
2018-11-21T07:06:23.275Z,21.69
2018-11-21T07:06:59.004Z,21.80
2018-11-21T07:07:35.445Z,21.63
2018-11-21T07:08:11.343Z,21.55
2018-11-21T07:08:47.357Z,21.57
2018-11-21T07:09:23.545Z,21.52
2018-11-21T07:09:59.130Z,21.45
2018-11-21T07:10:34.428Z,21.52
2018-11-21T07:11:10.324Z,21.52
2018-11-21T07:11:47.354Z,21.54
2018-11-21T07:12:22.278Z,21.58
2018-11-21T07:12:58.036Z,21.64
2018-11-21T07:13:33.958Z,21.57
2018-11-21T07:14:10.150Z,21.58
2018-11-21T07:14:46.304Z,21.59
2018-11-21T07:15:22.156Z,21.62
2018-11-21T07:15:58.498Z,21.56
2018-11-21T07:16:34.230Z,21.62
2018-11-21T07:17:10.242Z,21.50
2018-11-21T07:17:45.984Z,21.48
2018-11-21T07:18:21.465Z,21.47
2018-11-21T07:18:56.477Z,21.57
2018-11-21T07:19:32.021Z,21.57
2018-11-21T07:20:10.862Z,21.58
2018-11-21T07:20:46.427Z,21.56
2018-11-21T07:21:21.669Z,21.44
2018-11-21T07:21:57.622Z,21.42
2018-11-21T07:22:33.387Z,21.67
2018-11-21T07:23:09.011Z,21.67
2018-11-21T07:23:44.677Z,21.59
2018-11-21T07:24:26.257Z,21.55
2018-11-21T07:24:57.139Z,21.59
2018-11-21T07:25:33.254Z,21.49
2018-11-21T07:26:10.080Z,21.47
2018-11-21T07:26:45.554Z,21.45
2018-11-21T07:27:20.773Z,21.39
2018-11-21T07:27:56.821Z,21.42
2018-11-21T07:28:31.734Z,21.44
2018-11-21T07:29:08.355Z,21.53
2018-11-21T07:29:43.884Z,21.48
2018-11-21T07:30:20.673Z,21.52
2018-11-21T07:30:56.130Z,21.46
2018-11-21T07:31:32.104Z,21.43
2018-11-21T07:32:08.159Z,21.39
2018-11-21T07:32:44.666Z,21.46
2018-11-21T07:33:19.694Z,21.46
2018-11-21T07:33:55.521Z,21.42
2018-11-21T07:34:31.203Z,21.40
2018-11-21T07:35:07.550Z,21.42
2018-11-21T07:35:44.160Z,21.33
2018-11-21T07:36:20.187Z,21.28
2018-11-21T07:36:55.594Z,21.40
2018-11-21T07:37:31.213Z,21.56
2018-11-21T07:38:07.246Z,21.40
2018-11-21T07:38:42.817Z,21.46
2018-11-21T07:39:18.504Z,21.46
2018-11-21T07:39:53.914Z,21.41
2018-11-21T07:40:29.736Z,21.35
2018-11-21T07:41:05.424Z,21.38
2018-11-21T07:41:41.769Z,21.37
2018-11-21T07:42:17.356Z,21.39
2018-11-21T07:42:53.556Z,21.44